createdAt,value
2018-06-27T00:00:00.870Z,13.70
2018-06-27T00:03:04.385Z,13.70
2018-06-27T00:06:07.466Z,13.70
2018-06-27T00:09:10.533Z,13.60
2018-06-27T00:12:13.590Z,13.70
2018-06-27T00:15:16.669Z,13.70
2018-06-27T00:18:19.760Z,13.60
2018-06-27T00:21:22.843Z,13.60
2018-06-27T00:27:28.778Z,13.50
2018-06-27T00:30:31.845Z,13.50
2018-06-27T00:33:34.901Z,13.50
2018-06-27T00:39:40.823Z,13.40
2018-06-27T00:42:43.898Z,13.50
2018-06-27T00:45:46.964Z,13.40
2018-06-27T00:48:50.021Z,13.50
2018-06-27T00:51:53.077Z,13.40
2018-06-27T00:54:56.133Z,13.40
2018-06-27T01:01:02.973Z,13.40
2018-06-27T01:04:06.290Z,13.40
2018-06-27T01:07:09.353Z,13.30
2018-06-27T01:10:12.441Z,13.30
2018-06-27T01:13:15.516Z,13.30
2018-06-27T01:16:18.613Z,13.30
2018-06-27T01:19:21.685Z,13.30
2018-06-27T01:25:27.617Z,13.30
2018-06-27T01:28:30.686Z,13.30
2018-06-27T01:31:33.770Z,13.30
2018-06-27T01:34:36.839Z,13.30
2018-06-27T01:40:42.781Z,13.30
2018-06-27T01:43:45.878Z,13.30
2018-06-27T01:46:48.981Z,13.30
2018-06-27T01:49:52.049Z,13.40
2018-06-27T01:52:55.154Z,13.50
2018-06-27T01:55:58.263Z,13.60
2018-06-27T02:02:04.216Z,13.70
2018-06-27T02:05:07.293Z,13.70
2018-06-27T02:08:10.398Z,13.80
2018-06-27T02:11:13.480Z,13.90
2018-06-27T02:14:16.573Z,13.90
2018-06-27T02:17:19.681Z,14.00
2018-06-27T02:20:22.771Z,14.00
2018-06-27T02:23:25.865Z,14.00
2018-06-27T02:26:28.945Z,14.00
2018-06-27T02:29:32.057Z,14.00
2018-06-27T02:32:35.137Z,14.00
2018-06-27T02:35:38.221Z,14.00
2018-06-27T02:38:41.273Z,14.10
2018-06-27T02:41:44.360Z,14.10
2018-06-27T02:44:47.432Z,14.10
2018-06-27T02:53:56.232Z,14.20
2018-06-27T02:56:59.314Z,14.10
2018-06-27T03:00:02.374Z,14.20
2018-06-27T03:06:08.365Z,14.10
2018-06-27T03:09:11.923Z,14.10
2018-06-27T03:12:14.998Z,14.10
2018-06-27T03:15:18.081Z,14.10
2018-06-27T03:18:21.161Z,14.10
2018-06-27T03:21:24.985Z,14.10
2018-06-27T03:24:28.061Z,14.10
2018-06-27T03:27:31.161Z,14.10
2018-06-27T03:30:35.349Z,14.10
2018-06-27T03:33:38.499Z,14.10
2018-06-27T03:36:41.545Z,14.20
2018-06-27T03:39:44.643Z,14.20
2018-06-27T03:42:47.726Z,14.20
2018-06-27T03:45:50.817Z,14.20
2018-06-27T03:48:53.942Z,14.30
2018-06-27T03:51:57.105Z,14.30
2018-06-27T03:55:00.213Z,14.30
2018-06-27T03:58:03.318Z,14.30
2018-06-27T04:01:07.853Z,14.40
2018-06-27T04:04:10.937Z,14.40
2018-06-27T04:07:14.004Z,14.50
2018-06-27T04:10:17.098Z,14.60
2018-06-27T04:13:20.926Z,14.60
2018-06-27T04:16:23.906Z,14.60
2018-06-27T04:19:27.125Z,14.60
2018-06-27T04:22:32.773Z,14.70
2018-06-27T04:25:35.821Z,14.70
2018-06-27T04:28:38.898Z,14.80
2018-06-27T04:31:41.991Z,14.80
2018-06-27T04:34:45.185Z,14.90
2018-06-27T04:37:48.270Z,14.80
2018-06-27T04:40:51.342Z,14.80
2018-06-27T04:43:54.434Z,14.80
2018-06-27T04:46:57.501Z,14.80
2018-06-27T04:50:00.602Z,14.80
2018-06-27T04:53:03.700Z,14.90
2018-06-27T04:56:06.785Z,14.90
2018-06-27T04:59:09.916Z,15.10
2018-06-27T05:02:12.969Z,15.10
2018-06-27T05:05:16.068Z,15.00
2018-06-27T05:08:19.158Z,15.00
2018-06-27T05:11:22.253Z,15.10
2018-06-27T05:14:25.297Z,15.40
2018-06-27T05:17:28.369Z,16.10
2018-06-27T05:20:31.454Z,16.70
2018-06-27T05:23:34.549Z,17.60
2018-06-27T05:26:37.615Z,18.30
2018-06-27T05:32:43.545Z,20.70
2018-06-27T05:35:46.630Z,20.00
2018-06-27T05:38:49.831Z,18.90
2018-06-27T05:41:52.895Z,17.60
2018-06-27T05:44:55.968Z,17.40
2018-06-27T05:51:01.881Z,19.20
2018-06-27T05:54:04.974Z,20.60
2018-06-27T05:57:08.065Z,21.60
2018-06-27T06:00:12.419Z,22.50
2018-06-27T06:03:15.469Z,23.90
2018-06-27T06:06:18.567Z,25.00
2018-06-27T06:09:21.646Z,25.60
2018-06-27T06:12:24.794Z,26.90
2018-06-27T06:15:28.038Z,27.10
2018-06-27T06:18:31.389Z,27.70
2018-06-27T06:24:41.073Z,28.60
2018-06-27T06:27:44.243Z,30.30
2018-06-27T06:30:47.414Z,30.60
2018-06-27T06:33:51.379Z,31.20
2018-06-27T06:36:54.586Z,31.70
2018-06-27T06:39:57.758Z,31.70
2018-06-27T06:43:00.938Z,31.40
2018-06-27T06:49:07.087Z,30.60
2018-06-27T06:52:10.269Z,30.50
2018-06-27T06:55:13.433Z,30.00
2018-06-27T06:58:16.558Z,28.40
2018-06-27T07:01:19.769Z,26.90
2018-06-27T07:07:57.550Z,24.00
2018-06-27T07:11:01.252Z,23.40
2018-06-27T07:14:04.725Z,23.70
2018-06-27T07:17:08.453Z,23.90
2018-06-27T07:20:12.206Z,24.10
2018-06-27T07:23:16.178Z,24.30
2018-06-27T07:26:20.201Z,25.30
2018-06-27T07:29:24.508Z,26.90
2018-06-27T07:32:28.650Z,28.60
2018-06-27T07:35:32.791Z,29.40
2018-06-27T07:41:50.726Z,30.10
2018-06-27T07:44:53.903Z,30.40
2018-06-27T07:47:57.439Z,30.80
2018-06-27T07:51:01.366Z,30.10
2018-06-27T07:54:04.631Z,30.30
2018-06-27T07:57:09.090Z,30.60
2018-06-27T08:00:12.267Z,31.40
2018-06-27T08:03:15.480Z,32.10
2018-06-27T08:06:18.753Z,32.40
2018-06-27T08:09:21.959Z,32.30
2018-06-27T08:15:28.138Z,30.60
2018-06-27T08:18:40.704Z,30.80
2018-06-27T08:21:43.927Z,31.20
2018-06-27T08:24:47.147Z,31.50
2018-06-27T08:27:50.354Z,30.70
2018-06-27T08:33:56.437Z,29.30
2018-06-27T08:43:05.591Z,30.10
2018-06-27T08:46:08.799Z,30.40
2018-06-27T08:49:12.007Z,29.90
2018-06-27T08:52:15.227Z,28.30
2018-06-27T08:55:18.366Z,26.70
2018-06-27T08:58:21.591Z,25.80
2018-06-27T09:01:24.754Z,24.90
2018-06-27T09:04:27.902Z,24.40
2018-06-27T09:07:31.095Z,24.40
2018-06-27T09:10:34.395Z,24.60
2018-06-27T09:13:37.627Z,24.10
2018-06-27T09:16:40.814Z,23.80
2018-06-27T09:19:44.068Z,23.90
2018-06-27T09:22:47.899Z,25.00
2018-06-27T09:25:51.162Z,25.40
2018-06-27T09:28:54.424Z,25.60
2018-06-27T09:31:57.663Z,25.70
2018-06-27T09:35:00.863Z,25.90
2018-06-27T09:38:04.086Z,25.80
2018-06-27T09:41:07.292Z,25.80
2018-06-27T09:44:10.553Z,25.40
2018-06-27T09:47:13.754Z,25.00
2018-06-27T09:50:16.954Z,24.90
2018-06-27T09:53:20.146Z,24.60
2018-06-27T09:56:23.986Z,24.40
2018-06-27T09:59:27.196Z,24.60
2018-06-27T10:05:33.594Z,24.70
2018-06-27T10:11:39.999Z,24.20
2018-06-27T10:14:43.161Z,24.10
2018-06-27T10:20:49.366Z,23.80
2018-06-27T10:23:52.681Z,24.00
2018-06-27T10:26:55.939Z,24.30
2018-06-27T10:29:59.215Z,24.30
2018-06-27T10:33:02.524Z,24.30
2018-06-27T10:36:05.807Z,24.50
2018-06-27T10:39:10.307Z,24.60
2018-06-27T10:42:13.480Z,24.30
2018-06-27T10:45:16.675Z,23.80
2018-06-27T10:48:19.834Z,23.40
2018-06-27T10:51:23.102Z,23.10
2018-06-27T10:54:26.279Z,23.00
2018-06-27T10:57:29.410Z,23.30
2018-06-27T11:00:32.590Z,23.60
2018-06-27T11:03:42.307Z,23.60
2018-06-27T11:06:45.498Z,23.30
2018-06-27T11:09:48.693Z,23.20
2018-06-27T11:12:51.942Z,23.30
2018-06-27T11:15:55.190Z,23.20
2018-06-27T11:18:58.361Z,23.00
2018-06-27T11:22:01.540Z,22.80
2018-06-27T11:25:04.956Z,22.80
2018-06-27T11:31:11.222Z,22.50
2018-06-27T11:34:14.475Z,22.50
2018-06-27T11:37:17.686Z,22.80
2018-06-27T11:40:20.835Z,22.90
2018-06-27T11:43:24.089Z,23.10
2018-06-27T11:49:30.180Z,23.00
2018-06-27T11:52:33.318Z,23.00
2018-06-27T11:55:36.590Z,22.90
2018-06-27T11:58:39.782Z,22.60
2018-06-27T12:01:42.947Z,22.50
2018-06-27T12:07:49.063Z,22.80
2018-06-27T12:10:52.274Z,23.10
2018-06-27T12:13:55.461Z,23.10
2018-06-27T12:16:58.728Z,22.90
2018-06-27T12:20:01.978Z,22.80
2018-06-27T12:23:05.248Z,22.90
2018-06-27T12:26:08.495Z,22.70
2018-06-27T12:29:11.658Z,22.60
2018-06-27T12:32:14.845Z,22.70
2018-06-27T12:35:18.678Z,22.80
2018-06-27T12:38:21.843Z,22.70
2018-06-27T12:41:24.946Z,22.70
2018-06-27T12:44:28.195Z,22.80
2018-06-27T12:50:34.396Z,22.90
2018-06-27T12:53:37.538Z,22.90
2018-06-27T12:59:43.720Z,23.10
2018-06-27T13:02:46.906Z,23.30
2018-06-27T13:05:50.206Z,23.20
2018-06-27T13:11:56.336Z,23.10
2018-06-27T13:14:59.546Z,22.90
2018-06-27T13:18:02.886Z,22.70
2018-06-27T13:24:09.018Z,22.90
2018-06-27T13:27:12.247Z,23.00
2018-06-27T13:30:15.438Z,23.10
2018-06-27T13:33:18.655Z,23.30
2018-06-27T13:39:24.818Z,23.50
2018-06-27T13:42:27.994Z,23.30
2018-06-27T13:45:31.175Z,23.00
2018-06-27T13:48:34.355Z,23.00
2018-06-27T13:51:37.500Z,23.00
2018-06-27T13:57:46.242Z,23.20
2018-06-27T14:00:49.419Z,23.10
2018-06-27T14:03:52.574Z,23.10
2018-06-27T14:06:55.781Z,23.10
2018-06-27T14:09:58.930Z,23.10
2018-06-27T14:13:02.098Z,23.10
2018-06-27T14:16:05.643Z,23.20
2018-06-27T14:19:08.783Z,23.00
2018-06-27T14:22:11.950Z,23.00
2018-06-27T14:25:15.080Z,23.00
2018-06-27T14:28:18.194Z,23.10
2018-06-27T14:31:21.363Z,23.00
2018-06-27T14:34:24.520Z,23.30
2018-06-27T14:37:27.734Z,23.50
2018-06-27T14:40:30.922Z,23.60
2018-06-27T14:43:34.170Z,23.70
2018-06-27T14:46:37.519Z,23.40
2018-06-27T14:49:40.715Z,23.20
2018-06-27T14:52:44.003Z,22.90
2018-06-27T14:55:47.182Z,22.80
2018-06-27T14:58:50.431Z,22.80
2018-06-27T15:04:56.702Z,23.00
2018-06-27T15:07:59.997Z,23.20
2018-06-27T15:11:03.211Z,23.30
2018-06-27T15:20:12.278Z,23.50
2018-06-27T15:26:18.475Z,23.20
2018-06-27T15:29:21.705Z,23.00
2018-06-27T15:32:24.926Z,23.00
2018-06-27T15:35:28.322Z,23.00
2018-06-27T15:38:31.402Z,23.10
2018-06-27T15:41:34.698Z,23.10
2018-06-27T15:44:37.863Z,23.20
2018-06-27T15:47:41.049Z,23.20
2018-06-27T15:50:44.322Z,23.30
2018-06-27T15:53:47.679Z,23.50
2018-06-27T15:56:50.943Z,23.60
2018-06-27T15:59:55.450Z,23.70
2018-06-27T16:06:01.626Z,23.70
2018-06-27T16:09:07.060Z,23.40
2018-06-27T16:12:10.306Z,23.20
2018-06-27T16:15:13.470Z,23.10
2018-06-27T16:18:16.703Z,23.00
2018-06-27T16:21:19.906Z,22.90
2018-06-27T16:24:23.079Z,22.90
2018-06-27T16:27:26.320Z,22.80
2018-06-27T16:30:29.566Z,22.80
2018-06-27T16:33:32.750Z,22.70
2018-06-27T16:36:36.273Z,22.50
2018-06-27T16:39:39.499Z,22.40
2018-06-27T16:42:42.734Z,22.30
2018-06-27T16:45:45.946Z,22.10
2018-06-27T16:48:49.063Z,22.10
2018-06-27T16:51:52.225Z,21.90
2018-06-27T16:54:55.360Z,21.90
2018-06-27T16:57:58.583Z,21.90
2018-06-27T17:04:08.573Z,21.80
2018-06-27T17:07:11.739Z,22.10
2018-06-27T17:10:14.961Z,22.20
2018-06-27T17:13:18.203Z,22.40
2018-06-27T17:16:21.411Z,22.50
2018-06-27T17:22:27.949Z,22.60
2018-06-27T17:25:31.164Z,22.50
2018-06-27T17:28:34.498Z,22.40
2018-06-27T17:38:08.688Z,21.70
2018-06-27T17:41:11.771Z,21.60
2018-06-27T17:44:14.926Z,21.50
2018-06-27T17:47:18.091Z,21.40
2018-06-27T17:50:21.234Z,21.20
2018-06-27T17:53:24.395Z,21.10
2018-06-27T17:56:27.603Z,21.00
2018-06-27T17:59:30.926Z,21.00
2018-06-27T18:08:40.153Z,20.90
2018-06-27T18:11:43.334Z,20.90
2018-06-27T18:14:46.474Z,20.80
2018-06-27T18:17:49.658Z,20.80
2018-06-27T18:21:12.031Z,20.80
2018-06-27T18:24:15.407Z,20.70
2018-06-27T18:27:18.554Z,20.70
2018-06-27T18:30:21.724Z,20.70
2018-06-27T18:33:25.043Z,20.70
2018-06-27T18:36:28.335Z,20.60
2018-06-27T18:39:31.591Z,20.50
2018-06-27T18:45:37.810Z,20.50
2018-06-27T18:48:41.105Z,20.40
2018-06-27T18:51:44.323Z,20.30
2018-06-27T18:54:47.570Z,20.30
2018-06-27T18:57:50.791Z,20.20
2018-06-27T19:00:53.959Z,20.10
2018-06-27T19:07:00.088Z,20.00
2018-06-27T19:10:03.582Z,20.00
2018-06-27T19:13:06.799Z,19.90
2018-06-27T19:16:10.042Z,19.80
2018-06-27T19:19:13.275Z,19.70
2018-06-27T19:22:16.578Z,19.70
2018-06-27T19:25:19.943Z,19.60
2018-06-27T19:28:23.184Z,19.50
2018-06-27T19:31:26.479Z,19.40
2018-06-27T19:37:32.739Z,19.30
2018-06-27T19:40:35.854Z,19.20
2018-06-27T19:43:38.938Z,19.10
2018-06-27T19:46:42.001Z,18.90
2018-06-27T19:49:45.068Z,18.90
2018-06-27T19:52:48.145Z,18.90
2018-06-27T19:58:54.110Z,18.90
2018-06-27T20:05:01.114Z,18.80
2018-06-27T20:08:04.198Z,18.70
2018-06-27T20:14:10.218Z,18.60
2018-06-27T20:17:17.279Z,18.40
2018-06-27T20:23:23.325Z,18.30
2018-06-27T20:26:26.390Z,18.40
2018-06-27T20:29:29.458Z,18.30
2018-06-27T20:32:32.507Z,18.30
2018-06-27T20:35:35.605Z,18.30
2018-06-27T20:38:38.665Z,18.20
2018-06-27T20:41:41.774Z,18.20
2018-06-27T20:44:44.866Z,18.10
2018-06-27T20:47:47.914Z,18.10
2018-06-27T20:50:51.002Z,18.10
2018-06-27T20:53:54.064Z,18.10
2018-06-27T21:00:02.127Z,18.00
2018-06-27T21:03:05.282Z,18.00
2018-06-27T21:06:08.377Z,18.00
2018-06-27T21:12:15.050Z,18.00
2018-06-27T21:15:18.130Z,18.00
2018-06-27T21:18:21.198Z,18.00
2018-06-27T21:21:24.282Z,18.00
2018-06-27T21:24:27.379Z,18.00
2018-06-27T21:27:30.445Z,18.00
2018-06-27T21:30:33.538Z,17.90
2018-06-27T21:33:36.612Z,17.90
2018-06-27T21:36:41.898Z,17.80
2018-06-27T21:39:44.981Z,17.70
2018-06-27T21:42:48.052Z,17.60
2018-06-27T21:45:51.145Z,17.60
2018-06-27T21:48:54.239Z,17.50
2018-06-27T21:51:58.090Z,17.50
2018-06-27T21:55:01.288Z,17.50
2018-06-27T21:58:04.887Z,17.40
2018-06-27T22:01:08.798Z,17.40
2018-06-27T22:04:11.878Z,17.40
2018-06-27T22:07:14.949Z,17.40
2018-06-27T22:10:18.030Z,17.30
2018-06-27T22:13:21.098Z,17.30
2018-06-27T22:16:24.235Z,17.20
2018-06-27T22:19:27.345Z,17.10
2018-06-27T22:22:30.414Z,17.10
2018-06-27T22:25:33.479Z,17.10
2018-06-27T22:28:36.529Z,17.10
2018-06-27T22:35:09.609Z,17.00
2018-06-27T22:38:12.678Z,16.90
2018-06-27T22:41:15.761Z,16.90
2018-06-27T22:44:18.926Z,16.90
2018-06-27T22:47:21.997Z,16.80
2018-06-27T22:50:25.192Z,16.90
2018-06-27T22:53:28.273Z,17.00
2018-06-27T22:56:31.346Z,16.90
2018-06-27T22:59:34.405Z,16.90
2018-06-27T23:02:37.554Z,16.90
2018-06-27T23:05:40.614Z,16.80
2018-06-27T23:08:43.690Z,16.80
2018-06-27T23:11:46.767Z,16.70
2018-06-27T23:14:49.858Z,16.60
2018-06-27T23:20:55.923Z,16.60
2018-06-27T23:23:58.969Z,16.50
2018-06-27T23:27:02.060Z,16.40
2018-06-27T23:30:05.642Z,16.40
2018-06-27T23:33:08.721Z,16.40
2018-06-27T23:36:11.786Z,16.40
2018-06-27T23:39:14.845Z,16.40
2018-06-27T23:42:17.926Z,16.40
2018-06-27T23:45:21.029Z,16.40
2018-06-27T23:48:24.088Z,16.40
2018-06-27T23:51:27.179Z,16.40
2018-06-27T23:54:30.261Z,16.30
2018-06-27T23:57:33.382Z,16.30
